createdAt,value
2022-10-17T00:02:43.704Z,9.10
2022-10-17T00:07:49.117Z,8.90
2022-10-17T00:12:54.286Z,8.90
2022-10-17T00:18:00.643Z,8.80
2022-10-17T00:23:05.978Z,8.80
2022-10-17T00:28:13.612Z,8.90
2022-10-17T00:33:20.702Z,8.90
2022-10-17T00:38:28.263Z,8.80
2022-10-17T00:43:51.294Z,8.80
2022-10-17T00:48:59.240Z,8.80
2022-10-17T00:54:05.316Z,8.80
2022-10-17T00:59:12.709Z,8.90
2022-10-17T01:04:20.037Z,9.00
2022-10-17T01:09:28.674Z,9.10
2022-10-17T01:14:39.572Z,9.10
2022-10-17T01:20:07.219Z,9.30
2022-10-17T01:25:30.496Z,9.40
2022-10-17T01:30:59.114Z,9.50
2022-10-17T01:36:21.944Z,9.60
2022-10-17T01:41:30.099Z,9.60
2022-10-17T01:46:42.999Z,9.70
2022-10-17T01:51:52.759Z,9.80
2022-10-17T01:57:03.796Z,9.90
2022-10-17T02:02:12.161Z,9.90
2022-10-17T02:07:17.911Z,10.00
2022-10-17T02:12:46.583Z,10.00
2022-10-17T02:18:18.790Z,10.10
2022-10-17T02:23:45.026Z,10.10
2022-10-17T02:29:10.891Z,10.10
2022-10-17T02:34:24.773Z,10.20
2022-10-17T02:39:32.822Z,10.30
2022-10-17T02:44:41.546Z,10.30
2022-10-17T02:49:49.749Z,10.30
2022-10-17T02:54:57.952Z,10.30
2022-10-17T03:00:05.443Z,10.30
2022-10-17T03:05:12.972Z,10.40
2022-10-17T03:10:19.651Z,10.40
2022-10-17T03:15:25.984Z,10.50
2022-10-17T03:20:31.258Z,10.50
2022-10-17T03:25:36.539Z,10.50
2022-10-17T03:30:41.913Z,10.60
2022-10-17T03:35:47.272Z,10.60
2022-10-17T03:40:58.560Z,10.60
2022-10-17T03:46:05.344Z,10.70
2022-10-17T03:51:11.580Z,10.70
2022-10-17T03:56:19.319Z,10.70
2022-10-17T04:01:25.916Z,10.80
2022-10-17T04:06:32.891Z,10.80
2022-10-17T04:11:38.255Z,10.90
2022-10-17T04:16:43.486Z,10.90
2022-10-17T04:21:50.995Z,10.90
2022-10-17T04:26:56.284Z,10.90
2022-10-17T04:32:04.797Z,10.90
2022-10-17T04:37:11.681Z,10.90
2022-10-17T04:42:17.055Z,10.80
2022-10-17T04:47:25.591Z,10.80
2022-10-17T04:52:32.334Z,10.90
2022-10-17T04:57:40.126Z,10.90
2022-10-17T05:02:45.839Z,10.90
2022-10-17T05:07:52.177Z,11.00
2022-10-17T05:12:57.437Z,11.00
2022-10-17T05:18:07.075Z,11.00
2022-10-17T05:23:13.740Z,11.10
2022-10-17T05:28:18.850Z,11.10
2022-10-17T05:33:24.701Z,11.10
2022-10-17T05:38:32.226Z,11.00
2022-10-17T05:43:37.486Z,11.10
2022-10-17T05:48:43.878Z,11.20
2022-10-17T05:53:51.063Z,11.10
2022-10-17T05:59:00.730Z,11.20
2022-10-17T06:04:04.312Z,11.10
2022-10-17T06:09:09.616Z,11.20
2022-10-17T06:14:17.246Z,11.20
2022-10-17T06:19:22.510Z,11.30
2022-10-17T06:29:51.914Z,11.60
2022-10-17T06:34:59.946Z,11.80
2022-10-17T06:40:09.146Z,11.90
2022-10-17T06:45:33.734Z,12.20
2022-10-17T06:50:39.821Z,12.40
2022-10-17T06:55:46.771Z,12.70
2022-10-17T07:00:52.176Z,12.90
2022-10-17T07:05:58.933Z,13.20
2022-10-17T07:11:12.749Z,13.50
2022-10-17T07:16:20.908Z,13.90
2022-10-17T07:21:39.224Z,14.30
2022-10-17T07:26:44.089Z,14.60
2022-10-17T07:31:53.734Z,14.80
2022-10-17T07:37:10.753Z,14.80
2022-10-17T07:42:17.335Z,14.50
2022-10-17T07:47:30.383Z,14.50
2022-10-17T07:52:49.679Z,14.60
2022-10-17T07:57:55.220Z,14.70
2022-10-17T08:03:08.912Z,14.90
2022-10-17T08:08:17.029Z,15.50
2022-10-17T08:13:23.466Z,15.90
2022-10-17T08:18:31.487Z,16.10
2022-10-17T08:23:38.671Z,16.30
2022-10-17T08:28:44.362Z,16.60
2022-10-17T08:33:54.828Z,17.10
2022-10-17T08:39:04.861Z,17.40
2022-10-17T08:44:31.443Z,17.80
2022-10-17T08:49:56.428Z,17.70
2022-10-17T09:00:29.539Z,17.80
2022-10-17T09:05:48.122Z,18.30
2022-10-17T09:11:08.538Z,18.80
2022-10-17T09:16:32.336Z,19.10
2022-10-17T09:21:44.137Z,19.40
2022-10-17T09:32:38.690Z,20.10
2022-10-17T09:37:53.895Z,20.20
2022-10-17T09:43:03.019Z,20.40
2022-10-17T09:48:23.552Z,20.40
2022-10-17T09:53:31.823Z,20.60
2022-10-17T09:58:46.146Z,20.90
2022-10-17T10:04:15.197Z,21.10
2022-10-17T10:09:24.153Z,21.00
2022-10-17T10:20:30.984Z,21.60
2022-10-17T10:25:42.737Z,21.70
2022-10-17T10:30:59.932Z,21.70
2022-10-17T10:36:10.834Z,22.00
2022-10-17T10:47:22.377Z,22.50
2022-10-17T10:52:46.532Z,22.40
2022-10-17T10:57:55.172Z,22.50
2022-10-17T11:03:15.880Z,22.40
2022-10-17T11:08:36.647Z,22.40
2022-10-17T11:13:50.678Z,22.70
2022-10-17T11:19:32.303Z,22.70
2022-10-17T11:30:39.074Z,23.10
2022-10-17T11:35:53.418Z,23.10
2022-10-17T11:41:18.746Z,23.10
2022-10-17T11:46:45.698Z,23.00
2022-10-17T11:52:01.193Z,23.00
2022-10-17T11:57:44.032Z,23.00
2022-10-17T12:03:23.885Z,22.80
2022-10-17T12:08:57.834Z,22.70
2022-10-17T12:19:39.612Z,22.80
2022-10-17T12:24:51.369Z,22.80
2022-10-17T12:30:21.626Z,22.70
2022-10-17T12:35:29.932Z,22.60
2022-10-17T12:41:04.179Z,22.50
2022-10-17T12:46:37.447Z,22.50
2022-10-17T12:52:09.243Z,22.50
2022-10-17T12:57:26.714Z,22.60
2022-10-17T13:02:35.521Z,22.40
2022-10-17T13:07:50.076Z,22.20
2022-10-17T13:13:29.214Z,22.20
2022-10-17T13:18:43.736Z,22.10
2022-10-17T13:23:56.521Z,22.10
2022-10-17T13:29:06.752Z,22.10
2022-10-17T13:34:20.815Z,22.20
2022-10-17T13:39:44.997Z,22.30
2022-10-17T13:44:37.803Z,22.30
2022-10-17T13:49:45.243Z,22.20
2022-10-17T13:54:51.949Z,22.20
2022-10-17T14:00:00.060Z,22.10
2022-10-17T14:05:19.469Z,22.00
2022-10-17T14:10:26.839Z,21.90
2022-10-17T14:15:35.524Z,21.80
2022-10-17T14:21:19.751Z,21.80
2022-10-17T14:25:52.979Z,21.70
2022-10-17T14:36:48.941Z,21.50
2022-10-17T14:42:22.599Z,21.30
2022-10-17T14:47:43.697Z,21.10
2022-10-17T14:53:03.619Z,21.00
2022-10-17T14:58:22.123Z,20.80
2022-10-17T15:03:32.194Z,20.60
2022-10-17T15:08:40.687Z,20.40
2022-10-17T15:13:49.808Z,20.20
2022-10-17T15:19:15.703Z,20.10
2022-10-17T15:24:24.584Z,19.90
2022-10-17T15:29:32.620Z,19.70
2022-10-17T15:34:38.063Z,19.60
2022-10-17T15:39:43.300Z,19.40
2022-10-17T15:44:50.791Z,19.10
2022-10-17T15:50:09.001Z,18.80
2022-10-17T15:55:36.491Z,18.60
2022-10-17T16:00:43.364Z,18.50
2022-10-17T16:06:14.233Z,18.30
2022-10-17T16:11:39.909Z,18.20
2022-10-17T16:17:05.506Z,18.00
2022-10-17T16:22:36.979Z,17.90
2022-10-17T16:27:45.019Z,17.80
2022-10-17T16:32:59.188Z,17.80
2022-10-17T16:38:04.888Z,17.70
2022-10-17T16:43:15.717Z,17.60
2022-10-17T16:48:43.058Z,17.60
2022-10-17T16:53:54.102Z,17.50
2022-10-17T16:59:00.765Z,17.40
2022-10-17T17:04:17.775Z,17.30
2022-10-17T17:09:30.915Z,17.30
2022-10-17T17:14:46.672Z,17.30
2022-10-17T17:19:53.042Z,17.20
2022-10-17T17:25:01.436Z,17.00
2022-10-17T17:30:10.838Z,16.90
2022-10-17T17:35:18.731Z,16.70
2022-10-17T17:40:24.585Z,16.50
2022-10-17T17:45:31.325Z,16.40
2022-10-17T17:50:42.854Z,16.30
2022-10-17T17:55:50.829Z,16.20
2022-10-17T18:00:57.607Z,16.00
2022-10-17T18:06:22.913Z,15.90
2022-10-17T18:11:28.776Z,15.90
2022-10-17T18:16:36.283Z,15.90
2022-10-17T18:21:44.547Z,16.00
2022-10-17T18:26:54.085Z,15.90
2022-10-17T18:31:59.488Z,15.80
2022-10-17T18:37:05.086Z,15.70
2022-10-17T18:42:12.462Z,15.60
2022-10-17T18:47:20.688Z,15.50
2022-10-17T18:52:27.809Z,15.50
2022-10-17T18:57:33.134Z,15.50
2022-10-17T19:02:41.692Z,15.50
2022-10-17T19:07:50.110Z,15.40
2022-10-17T19:12:59.118Z,15.30
2022-10-17T19:18:07.340Z,15.20
2022-10-17T19:23:17.100Z,15.10
2022-10-17T19:28:26.280Z,14.90
2022-10-17T19:33:34.766Z,14.70
2022-10-17T19:38:44.138Z,14.60
2022-10-17T19:43:52.683Z,14.40
2022-10-17T19:49:02.755Z,14.30
2022-10-17T19:54:08.000Z,14.20
2022-10-17T19:59:32.511Z,14.10
2022-10-17T20:05:00.208Z,14.10
2022-10-17T20:09:59.014Z,14.10
2022-10-17T20:15:06.617Z,14.00
2022-10-17T20:20:13.341Z,14.00
2022-10-17T20:25:21.826Z,13.90
2022-10-17T20:30:32.009Z,13.80
2022-10-17T20:35:42.518Z,13.70
2022-10-17T20:40:51.334Z,13.70
2022-10-17T20:46:04.601Z,13.70
2022-10-17T20:51:12.025Z,13.90
2022-10-17T20:56:23.325Z,13.90
2022-10-17T21:01:35.143Z,14.00
2022-10-17T21:07:01.515Z,13.90
2022-10-17T21:12:07.034Z,13.80
2022-10-17T21:17:12.247Z,13.70
2022-10-17T21:22:18.414Z,13.70
2022-10-17T21:27:42.977Z,13.60
2022-10-17T21:32:53.409Z,13.60
2022-10-17T21:37:59.437Z,13.40
2022-10-17T21:43:08.428Z,13.30
2022-10-17T21:48:16.847Z,13.30
2022-10-17T21:53:23.888Z,13.20
2022-10-17T21:58:30.493Z,13.20
2022-10-17T22:03:44.211Z,13.10
2022-10-17T22:08:55.130Z,13.10
2022-10-17T22:14:09.553Z,13.00
2022-10-17T22:19:38.272Z,12.90
2022-10-17T22:24:47.335Z,12.80
2022-10-17T22:29:52.495Z,12.70
2022-10-17T22:34:58.202Z,12.60
2022-10-17T22:40:06.698Z,12.60
2022-10-17T22:45:14.883Z,12.50
2022-10-17T22:50:22.024Z,12.50
2022-10-17T22:55:28.989Z,12.40
2022-10-17T23:00:34.208Z,12.50
2022-10-17T23:05:40.876Z,12.40
2022-10-17T23:11:05.535Z,12.30
2022-10-17T23:16:11.127Z,12.20
2022-10-17T23:21:17.504Z,12.30
2022-10-17T23:26:22.630Z,12.20
2022-10-17T23:31:30.340Z,12.10
2022-10-17T23:36:38.935Z,12.10
2022-10-17T23:41:45.745Z,12.00
2022-10-17T23:46:57.048Z,12.00
2022-10-17T23:52:04.798Z,12.00
2022-10-17T23:57:10.694Z,11.90
